Time;durP1;ratioP1;P1;durP2;ratioP2;P2;SDS_P1;SDS_P2;PMS_P1;PMS_P2;Temp;Humidity;BMP_temperature;BMP_pressure;BME280_temperature;BME280_humidity;BME280_pressure;Samples;Min_cycle;Max_cycle;Signal;HPM_P1;HPM_P2
2021/08/24 00:00:12;;;;;;;;;8.67;7.67;;;;;19.10;61.53;102137.84;5128424;27;45383;-91
2021/08/24 00:02:37;;;;;;;;;10.33;9.67;;;;;18.98;61.52;102114.72;5081900;28;45568;-91
2021/08/24 00:05:04;;;;;;;;;10.33;7.67;;;;;19.07;61.78;102129.88;5081456;28;45265;-92
2021/08/24 00:07:29;;;;;;;;;9.00;8.00;;;;;19.06;61.73;102137.84;5079839;28;45196;-94
2021/08/24 00:09:55;;;;;;;;;9.67;8.00;;;;;18.91;61.87;102110.25;5081152;28;45423;-91
2021/08/24 00:12:20;;;;;;;;;7.67;7.67;;;;;19.04;62.03;102129.84;5082006;28;45337;-91
2021/08/24 00:14:46;;;;;;;;;12.67;8.00;;;;;18.95;62.08;102112.03;5080231;28;46957;-91
2021/08/24 00:17:12;;;;;;;;;9.67;7.33;;;;;18.99;62.51;102107.63;5081216;28;45431;-90
2021/08/24 00:19:37;;;;;;;;;8.00;7.00;;;;;18.94;62.45;102096.03;5080529;28;45457;-91
2021/08/24 00:22:03;;;;;;;;;9.00;8.00;;;;;19.03;62.30;102117.41;5084376;28;45523;-89
2021/08/24 00:24:28;;;;;;;;;12.33;11.00;;;;;18.91;62.49;102096.03;5086107;28;46840;-87
2021/08/24 00:26:54;;;;;;;;;10.33;10.33;;;;;18.90;62.48;102102.25;5092329;27;44770;-88
2021/08/24 00:29:19;;;;;;;;;12.67;11.33;;;;;18.84;62.62;102090.69;5098671;28;45355;-90
2021/08/24 00:31:44;;;;;;;;;12.33;12.00;;;;;18.91;62.63;102099.56;5100834;28;44760;-89
2021/08/24 00:34:10;;;;;;;;;12.33;11.33;;;;;18.96;62.85;102108.50;5094638;28;46325;-90
2021/08/24 00:36:35;;;;;;;;;14.00;13.67;;;;;18.96;62.86;102102.28;5082661;28;45320;-91
2021/08/24 00:39:02;;;;;;;;;17.67;13.67;;;;;18.85;62.76;102081.81;5114776;27;45394;-93
2021/08/24 00:41:28;;;;;;;;;14.67;13.33;;;;;18.91;63.07;102099.56;5082598;27;45290;-91
2021/08/24 00:43:55;;;;;;;;;20.33;17.00;;;;;18.92;62.95;102105.81;5081703;28;46357;-93
2021/08/24 00:46:38;;;;;;;;;15.67;15.67;;;;;18.92;63.06;102100.47;5081904;27;45455;-89
2021/08/24 00:49:11;;;;;;;;;21.33;14.67;;;;;18.85;63.22;102088.91;5079491;28;45392;-92
2021/08/24 00:51:39;;;;;;;;;20.67;15.67;;;;;18.88;63.13;102098.69;5080445;27;45263;-90
2021/08/24 00:54:14;;;;;;;;;17.67;15.00;;;;;18.85;62.90;102100.44;5081341;28;45456;-91
2021/08/24 00:56:45;;;;;;;;;17.67;15.33;;;;;18.77;63.14;102091.53;5082106;28;45783;-94
2021/08/24 00:59:12;;;;;;;;;16.00;12.67;;;;;18.77;63.51;102095.97;5083622;28;45239;-89
2021/08/24 01:01:37;;;;;;;;;11.67;11.67;;;;;18.84;63.40;102111.09;5083794;28;45254;-93
2021/08/24 01:04:03;;;;;;;;;14.67;12.00;;;;;18.81;63.41;102097.75;5082467;28;46364;-93
2021/08/24 01:06:44;;;;;;;;;15.33;14.33;;;;;18.79;63.45;102102.19;5115983;27;45291;-94
2021/08/24 01:09:32;;;;;;;;;12.67;12.67;;;;;18.82;63.59;102112.88;5095645;28;45259;-89
2021/08/24 01:12:10;;;;;;;;;13.67;13.00;;;;;18.80;63.53;102107.53;5104924;27;44802;-90
2021/08/24 01:15:10;;;;;;;;;11.67;8.33;;;;;18.79;63.60;102105.75;5105084;28;45403;-89
2021/08/24 01:17:46;;;;;;;;;17.67;13.67;;;;;18.73;63.93;102097.72;5086418;27;45250;-93
2021/08/24 01:20:37;;;;;;;;;14.67;12.33;;;;;18.79;63.69;102111.09;5085523;28;45283;-93
2021/08/24 01:23:15;;;;;;;;;12.33;11.33;;;;;18.76;63.79;102108.41;5083538;28;45411;-93
2021/08/24 01:25:59;;;;;;;;;13.00;12.00;;;;;18.72;63.93;102098.59;5088101;28;48193;-94
2021/08/24 01:29:06;;;;;;;;;13.33;12.00;;;;;18.68;63.82;102088.81;5086181;27;45266;-93
2021/08/24 01:32:10;;;;;;;;;12.00;12.00;;;;;18.62;63.97;102082.59;5081706;28;45357;-92
2021/08/24 01:35:00;;;;;;;;;13.00;11.67;;;;;18.68;64.15;102087.03;5054569;28;45443;-92
2021/08/24 01:37:43;;;;;;;;;17.33;13.33;;;;;18.73;64.11;102100.41;5063938;28;48146;-95
2021/08/24 01:40:14;;;;;;;;;15.33;13.33;;;;;18.69;64.05;102087.94;5085570;28;45369;-90
2021/08/24 01:42:42;;;;;;;;;13.67;12.67;;;;;18.66;64.03;102082.59;5096692;28;44874;-92
2021/08/24 01:45:19;;;;;;;;;15.33;13.00;;;;;18.73;64.11;102095.97;5088894;28;45285;-89
2021/08/24 01:47:58;;;;;;;;;18.00;12.33;;;;;18.71;63.97;102086.19;5066242;28;48204;-93
2021/08/24 01:50:39;;;;;;;;;16.67;12.67;;;;;18.60;64.08;102063.03;5065516;28;45747;-89
2021/08/24 01:53:18;;;;;;;;;16.00;13.67;;;;;18.63;63.96;102076.34;5083022;28;45251;-89
2021/08/24 01:55:52;;;;;;;;;12.00;12.00;;;;;18.64;64.23;102074.59;5088187;28;45379;-89
2021/08/24 01:58:28;;;;;;;;;13.33;11.67;;;;;18.66;64.59;102086.16;5079176;28;46173;-93
2021/08/24 02:00:56;;;;;;;;;16.33;12.67;;;;;18.61;64.56;102075.47;5080168;28;45421;-90
2021/08/24 02:03:30;;;;;;;;;18.33;14.67;;;;;18.54;64.17;102065.69;5079933;28;45424;-90
2021/08/24 02:06:01;;;;;;;;;12.00;11.67;;;;;18.56;64.79;102076.31;5080596;28;45538;-92
2021/08/24 02:08:34;;;;;;;;;10.33;10.33;;;;;18.54;64.50;102073.66;5080404;28;45453;-91
2021/08/24 02:11:02;;;;;;;;;16.00;14.33;;;;;18.54;64.39;102072.78;5081393;28;45754;-91
2021/08/24 02:13:35;;;;;;;;;14.33;13.33;;;;;18.50;64.43;102074.53;5091133;28;45473;-87
2021/08/24 02:16:05;;;;;;;;;15.33;13.67;;;;;18.63;64.53;102103.00;5092319;28;45275;-92
2021/08/24 02:18:36;;;;;;;;;14.33;12.67;;;;;18.60;64.62;102091.44;5092065;28;45292;-89
2021/08/24 02:21:08;;;;;;;;;18.67;14.33;;;;;18.49;64.75;102076.28;5090957;28;44970;-89
2021/08/24 02:23:34;;;;;;;;;15.33;15.00;;;;;18.63;64.85;102100.31;5093659;27;44712;-89
2021/08/24 02:26:05;;;;;;;;;14.00;14.00;;;;;18.52;64.97;102078.09;5089957;28;45585;-89
2021/08/24 02:28:37;;;;;;;;;15.67;15.33;;;;;18.58;64.82;102090.53;5089152;28;46257;-90
2021/08/24 02:31:12;;;;;;;;;14.00;12.00;;;;;18.49;64.98;102070.06;5089464;28;45341;-89
2021/08/24 02:33:43;;;;;;;;;15.33;13.67;;;;;18.55;64.88;102083.41;5086161;27;45349;-88
2021/08/24 02:36:13;;;;;;;;;18.00;14.00;;;;;18.52;64.75;102079.00;5083595;28;45443;-91
2021/08/24 02:38:45;;;;;;;;;17.00;16.33;;;;;18.60;65.07;102088.78;5092098;28;46166;-88
2021/08/24 02:41:25;;;;;;;;;18.67;17.67;;;;;18.58;65.15;102091.44;5090664;28;45427;-88
2021/08/24 02:44:06;;;;;;;;;15.67;14.67;;;;;18.63;65.07;102097.66;5085148;28;45283;-91
2021/08/24 02:46:40;;;;;;;;;20.33;16.67;;;;;18.61;64.94;102094.09;5081780;28;45297;-91
2021/08/24 02:49:11;;;;;;;;;15.67;14.67;;;;;18.57;65.10;102083.44;5079766;28;48412;-91
2021/08/24 02:51:36;;;;;;;;;18.33;18.33;;;;;18.58;65.15;102091.44;5080902;28;45364;-92
2021/08/24 02:54:28;;;;;;;;;22.67;18.67;;;;;18.56;64.93;102077.22;5080999;28;45253;-90
2021/08/24 02:56:54;;;;;;;;;19.33;18.33;;;;;18.52;65.21;102073.66;5080450;28;45634;-92
2021/08/24 02:59:21;;;;;;;;;18.33;16.67;;;;;18.59;65.06;102090.53;5078715;28;47132;-92
2021/08/24 03:01:46;;;;;;;;;21.67;20.33;;;;;18.59;65.07;102084.34;5080154;28;45271;-93
2021/08/24 03:04:13;;;;;;;;;20.67;19.67;;;;;18.54;65.29;102079.00;5083247;28;45289;-93
2021/08/24 03:06:48;;;;;;;;;25.00;20.67;;;;;18.51;65.26;102069.22;5084263;27;45168;-90
2021/08/24 03:09:17;;;;;;;;;23.33;20.33;;;;;18.60;65.33;102084.34;5116383;27;47396;-89
2021/08/24 03:12:22;;;;;;;;;27.00;23.33;;;;;18.60;65.23;102084.34;5083323;28;45494;-93
2021/08/24 03:15:09;;;;;;;;;26.67;26.33;;;;;18.54;65.22;102078.09;5060721;28;45492;-94
2021/08/24 03:18:03;;;;;;;;;28.00;23.67;;;;;18.58;65.31;102091.44;5061047;28;45473;-91
2021/08/24 03:20:34;;;;;;;;;25.33;23.00;;;;;18.58;65.58;102079.88;5065479;28;45519;-92
2021/08/24 03:23:01;;;;;;;;;24.67;21.00;;;;;18.46;65.35;102062.09;5067252;28;45210;-89
2021/08/24 03:25:27;;;;;;;;;29.50;25.75;;;;;18.50;65.58;102064.78;5049553;28;45441;-93
2021/08/24 03:27:52;;;;;;;;;22.67;21.00;;;;;18.54;65.39;102079.00;5062113;28;45570;-91
2021/08/24 03:30:20;;;;;;;;;26.75;26.75;;;;;18.53;65.43;102074.53;5060877;28;45577;-89
2021/08/24 03:32:47;;;;;;;;;27.00;22.75;;;;;18.55;65.83;102079.91;5060610;28;45347;-93
2021/08/24 03:35:15;;;;;;;;;27.67;24.67;;;;;18.45;65.37;102063.84;5060902;28;45248;-93
2021/08/24 03:37:43;;;;;;;;;27.25;26.00;;;;;18.48;65.41;102069.22;5061668;28;45527;-92
2021/08/24 03:40:09;;;;;;;;;33.00;29.50;;;;;18.45;65.46;102061.19;5061111;28;46349;-90
2021/08/24 03:42:35;;;;;;;;;32.50;29.00;;;;;18.54;65.63;102073.66;5061067;28;45635;-95
2021/08/24 03:45:00;;;;;;;;;34.50;28.50;;;;;18.45;65.33;102057.63;5061104;28;45392;-92
2021/08/24 03:47:25;;;;;;;;;30.00;28.00;;;;;18.53;65.70;102082.53;5060394;28;45281;-92
2021/08/24 03:49:51;;;;;;;;;28.25;26.50;;;;;18.49;65.59;102070.06;5059598;28;45792;-93
2021/08/24 03:52:17;;;;;;;;;26.00;25.00;;;;;18.52;65.62;102086.09;5077136;28;45392;-93
2021/08/24 03:54:42;;;;;;;;;30.67;27.00;;;;;18.43;65.62;102070.03;5115152;27;45308;-93
2021/08/24 03:57:07;;;;;;;;;31.75;28.25;;;;;18.50;65.49;102080.75;5082427;28;45347;-92
2021/08/24 03:59:33;;;;;;;;;27.00;27.00;;;;;18.44;65.58;102067.41;5082727;28;46118;-94
2021/08/24 04:01:58;;;;;;;;;30.50;27.50;;;;;18.43;65.51;102056.72;5081093;28;46156;-93
2021/08/24 04:04:24;;;;;;;;;30.75;26.25;;;;;18.37;65.56;102066.47;5082757;28;45300;-92
2021/08/24 04:06:49;;;;;;;;;29.75;29.50;;;;;18.35;65.42;102073.56;5082487;28;45240;-95
2021/08/24 04:09:15;;;;;;;;;36.50;32.25;;;;;18.44;65.47;102078.06;5080376;28;48286;-89
2021/08/24 04:11:40;;;;;;;;;32.75;30.00;;;;;18.42;65.73;102084.25;5082092;28;45413;-93
2021/08/24 04:14:05;;;;;;;;;32.00;27.67;;;;;18.28;65.59;102063.75;5079537;28;45327;-92
2021/08/24 04:16:31;;;;;;;;;43.75;33.50;;;;;18.32;65.52;102076.19;5081351;28;46283;-90
2021/08/24 04:18:56;;;;;;;;;35.25;31.00;;;;;18.30;65.95;102082.41;5080566;28;47370;-92
2021/08/24 04:21:22;;;;;;;;;34.00;30.25;;;;;18.30;65.64;102085.94;5082177;28;45384;-90
2021/08/24 04:23:48;;;;;;;;;29.00;27.00;;;;;18.28;65.92;102087.69;5082150;28;45302;-92
2021/08/24 04:26:16;;;;;;;;;36.50;31.00;;;;;18.31;65.96;102101.03;5081444;28;45416;-91
2021/08/24 04:28:41;;;;;;;;;31.75;29.75;;;;;18.25;65.57;102082.38;5081835;28;46430;-90
2021/08/24 04:31:12;;;;;;;;;42.50;32.25;;;;;18.20;65.90;102084.09;5082493;28;45240;-92
2021/08/24 04:33:38;;;;;;;;;37.00;29.33;;;;;18.19;65.92;102079.66;5115358;27;45451;-90
2021/08/24 04:36:05;;;;;;;;;28.75;24.75;;;;;18.17;66.13;102075.22;5082601;28;45359;-91
2021/08/24 04:38:31;;;;;;;;;35.00;29.50;;;;;18.13;65.81;102075.13;5080903;28;47145;-90
2021/08/24 04:40:58;;;;;;;;;30.50;29.00;;;;;18.27;65.82;102105.44;5081801;28;45183;-91
2021/08/24 04:43:23;;;;;;;;;32.25;28.50;;;;;18.27;65.74;102110.75;5082140;27;45284;-90
2021/08/24 04:45:49;;;;;;;;;36.50;30.50;;;;;18.15;65.62;102092.00;5114829;27;45495;-92
2021/08/24 04:48:14;;;;;;;;;33.25;31.25;;;;;18.14;66.02;102091.13;5080589;28;47212;-93
2021/08/24 04:50:41;;;;;;;;;30.50;29.75;;;;;18.18;65.81;102102.72;5081355;28;45891;-92
2021/08/24 04:53:07;;;;;;;;;37.50;31.75;;;;;18.11;66.07;102092.84;5082869;28;45815;-91
2021/08/24 04:55:33;;;;;;;;;30.25;29.25;;;;;18.15;65.85;102103.53;5082491;27;45466;-93
2021/08/24 04:58:01;;;;;;;;;35.00;30.00;;;;;18.19;66.07;102114.25;5082453;28;45677;-91
2021/08/24 05:00:27;;;;;;;;;33.00;30.00;;;;;18.12;66.24;102102.63;5082810;27;45343;-93
2021/08/24 05:02:52;;;;;;;;;33.25;28.75;;;;;18.12;65.70;102106.19;5082958;27;45210;-96
2021/08/24 05:05:18;;;;;;;;;30.75;27.75;;;;;18.20;66.07;102119.59;5084577;27;45256;-93
2021/08/24 05:07:43;;;;;;;;;37.75;30.50;;;;;18.15;65.67;102119.50;5084352;28;45296;-89
2021/08/24 05:10:09;;;;;;;;;37.00;32.50;;;;;18.12;66.04;102114.19;5084716;28;45307;-94
2021/08/24 05:12:34;;;;;;;;;30.67;27.33;;;;;18.06;65.96;102106.16;5087198;28;45229;-89
2021/08/24 05:15:00;;;;;;;;;31.00;28.75;;;;;18.15;66.17;102118.63;5100431;28;45317;-90
2021/08/24 05:17:25;;;;;;;;;28.25;27.25;;;;;18.06;65.91;102103.50;5101031;28;45187;-92
2021/08/24 05:19:51;;;;;;;;;32.75;29.75;;;;;18.17;65.91;102131.09;5102181;27;44809;-87
2021/08/24 05:22:16;;;;;;;;;30.00;29.50;;;;;18.10;66.28;102118.59;5090394;27;45359;-85
2021/08/24 05:24:42;;;;;;;;;31.25;28.50;;;;;18.17;66.26;102131.09;5104632;27;45400;-86
2021/08/24 05:27:10;;;;;;;;;36.25;31.25;;;;;18.15;66.53;102122.19;5100118;27;45276;-86
2021/08/24 05:29:36;;;;;;;;;35.00;30.25;;;;;18.20;65.80;102127.56;5086796;27;45318;-85
2021/08/24 05:32:02;;;;;;;;;32.25;29.50;;;;;18.21;66.04;102128.47;5091294;28;45355;-85
2021/08/24 05:34:28;;;;;;;;;34.00;30.25;;;;;18.23;66.01;102127.59;5093516;28;45416;-85
2021/08/24 05:36:53;;;;;;;;;33.00;30.00;;;;;18.23;66.09;102130.25;5094184;27;45252;-85
2021/08/24 05:39:19;;;;;;;;;33.50;27.75;;;;;18.23;65.95;102137.38;5086322;27;45337;-86
2021/08/24 05:41:44;;;;;;;;;29.50;26.75;;;;;18.23;65.93;102130.25;5080901;27;45195;-85
2021/08/24 05:44:10;;;;;;;;;32.33;27.00;;;;;18.24;65.95;102139.13;5079995;27;45326;-85
2021/08/24 05:46:36;;;;;;;;;31.67;26.33;;;;;18.28;65.71;102143.59;5078173;27;46380;-85
2021/08/24 05:49:02;;;;;;;;;32.00;28.67;;;;;18.27;65.54;102134.72;5078260;27;45306;-86
2021/08/24 05:51:27;;;;;;;;;28.00;24.67;;;;;18.27;65.55;102133.84;5079773;27;45308;-85
2021/08/24 05:53:53;;;;;;;;;25.67;24.00;;;;;18.28;65.89;102139.16;5083210;27;45335;-85
2021/08/24 05:56:21;;;;;;;;;28.00;27.33;;;;;18.25;65.92;102127.63;5089279;27;45499;-85
2021/08/24 05:58:47;;;;;;;;;27.00;25.00;;;;;18.28;65.57;102130.28;5086118;27;45306;-86
2021/08/24 06:01:22;;;;;;;;;27.33;25.00;;;;;18.22;65.94;102124.91;5087681;28;45409;-86
2021/08/24 06:03:48;;;;;;;;;30.75;26.75;;;;;18.27;65.66;102140.03;5087166;27;44782;-84
2021/08/24 06:06:23;;;;;;;;;28.00;26.67;;;;;18.27;65.78;102148.00;5084738;27;46440;-85
2021/08/24 06:08:49;;;;;;;;;24.00;24.00;;;;;18.25;65.66;102151.56;5078837;28;45402;-85
2021/08/24 06:11:27;;;;;;;;;28.67;26.33;;;;;18.25;65.42;102151.56;5078134;27;45246;-85
2021/08/24 06:13:54;;;;;;;;;25.33;22.33;;;;;18.24;65.76;102144.44;5078618;27;45368;-85
2021/08/24 06:16:20;;;;;;;;;25.00;23.00;;;;;18.23;65.68;102143.56;5079468;27;45532;-88
2021/08/24 06:18:46;;;;;;;;;22.67;20.00;;;;;18.26;65.61;102145.34;5077275;28;45335;-86
2021/08/24 06:21:12;;;;;;;;;29.25;24.00;;;;;18.23;65.48;102142.69;5079481;27;45328;-84
2021/08/24 06:23:38;;;;;;;;;28.75;24.00;;;;;18.27;65.64;102134.72;5079533;27;45269;-90
2021/08/24 06:26:04;;;;;;;;;24.50;24.00;;;;;18.28;65.70;102140.94;5078205;28;46483;-86
2021/08/24 06:28:30;;;;;;;;;30.50;24.50;;;;;18.30;65.30;102140.97;5077654;28;45338;-86
2021/08/24 06:30:55;;;;;;;;;29.75;24.00;;;;;18.27;65.70;102140.03;5076356;28;45471;-87
2021/08/24 06:33:26;;;;;;;;;31.25;26.75;;;;;18.33;65.98;102143.63;5111171;27;45774;-86
2021/08/24 06:35:52;;;;;;;;;28.50;23.50;;;;;18.34;65.89;102143.63;5077595;27;45345;-83
2021/08/24 06:38:17;;;;;;;;;27.00;24.33;;;;;18.35;65.70;102142.78;5077504;27;45415;-89
2021/08/24 06:40:42;;;;;;;;;23.00;23.00;;;;;18.34;65.88;102140.09;5077700;27;45281;-84
2021/08/24 06:43:08;;;;;;;;;23.33;22.00;;;;;18.37;65.52;102149.00;5077968;27;45473;-85
2021/08/24 06:45:33;;;;;;;;;21.67;21.67;;;;;18.34;66.07;102135.66;5076816;27;47041;-84
2021/08/24 06:48:00;;;;;;;;;23.67;22.00;;;;;18.39;65.77;102149.00;5077747;27;45426;-83
2021/08/24 06:50:27;;;;;;;;;28.67;24.67;;;;;18.42;65.45;102151.72;5077900;27;45396;-87
2021/08/24 06:52:53;;;;;;;;;26.33;24.00;;;;;18.43;66.00;102155.22;5078013;27;45440;-86
2021/08/24 06:55:18;;;;;;;;;26.67;24.00;;;;;18.45;66.06;102154.38;5077538;27;46094;-87
2021/08/24 06:57:44;;;;;;;;;23.00;22.00;;;;;18.48;66.07;102153.50;5077923;27;45401;-87
2021/08/24 07:00:16;;;;;;;;;25.00;24.00;;;;;18.50;66.05;102157.97;5078331;27;45380;-85
2021/08/24 07:02:42;;;;;;;;;23.67;22.33;;;;;18.52;65.44;102157.97;5078009;27;45462;-84
2021/08/24 07:05:10;;;;;;;;;21.75;21.25;;;;;18.52;65.38;102152.66;5080175;28;46342;-84
2021/08/24 07:07:35;;;;;;;;;29.67;25.00;;;;;18.55;65.62;102146.47;5080746;27;45326;-85
2021/08/24 07:10:02;;;;;;;;;25.25;24.50;;;;;18.57;65.53;102158.00;5083879;27;45254;-86
2021/08/24 07:12:27;;;;;;;;;27.67;23.33;;;;;18.55;65.17;102138.47;5089373;27;45293;-84
2021/08/24 07:14:52;;;;;;;;;26.67;24.00;;;;;18.58;65.70;102143.81;5084735;28;48246;-85
2021/08/24 07:17:19;;;;;;;;;31.00;26.67;;;;;18.61;65.60;102150.03;5080806;27;45180;-85
2021/08/24 07:19:44;;;;;;;;;27.00;24.33;;;;;18.63;65.25;102152.72;5078783;27;45333;-86
2021/08/24 07:22:10;;;;;;;;;29.00;25.33;;;;;18.66;64.97;102151.84;5078894;27;45449;-85
2021/08/24 07:24:36;;;;;;;;;25.67;24.33;;;;;18.68;65.49;102139.41;5076597;28;47164;-85
2021/08/24 07:27:01;;;;;;;;;28.00;25.67;;;;;18.63;65.15;102136.75;5077405;27;45431;-86
2021/08/24 07:29:27;;;;;;;;;24.67;21.33;;;;;18.69;65.19;102142.09;5075952;28;45319;-86
2021/08/24 07:31:52;;;;;;;;;33.67;27.00;;;;;18.72;65.13;102151.88;5077020;27;45475;-86
2021/08/24 07:34:18;;;;;;;;;29.67;24.67;;;;;18.76;65.33;102145.72;5077051;27;45650;-86
2021/08/24 07:36:43;;;;;;;;;22.33;21.33;;;;;18.80;65.06;102150.16;5076798;28;45281;-86
2021/08/24 07:39:09;;;;;;;;;32.33;24.00;;;;;18.77;65.23;102143.91;5077185;27;45408;-87
2021/08/24 07:41:34;;;;;;;;;25.33;23.67;;;;;18.84;64.97;102141.31;5077046;27;45471;-86
2021/08/24 07:44:00;;;;;;;;;26.00;25.67;;;;;18.86;64.79;102144.88;5076645;27;45431;-87
2021/08/24 07:46:25;;;;;;;;;26.33;21.67;;;;;18.92;65.11;102140.44;5076432;27;45417;-86
2021/08/24 07:48:51;;;;;;;;;26.00;22.33;;;;;18.91;65.49;102142.22;5077327;27;45439;-84
2021/08/24 07:51:20;;;;;;;;;25.33;23.33;;;;;18.95;65.00;102143.13;5080412;27;45296;-85
2021/08/24 07:53:46;;;;;;;;;29.00;25.67;;;;;19.01;64.92;102145.84;5079653;27;45480;-85
2021/08/24 07:56:11;;;;;;;;;26.67;23.00;;;;;19.04;65.08;102143.16;5080149;28;45393;-84
2021/08/24 07:58:36;;;;;;;;;25.67;21.67;;;;;19.04;64.71;102136.94;5081708;27;45531;-85
2021/08/24 08:01:02;;;;;;;;;24.33;21.33;;;;;19.11;64.63;102144.09;5082145;27;45287;-85
2021/08/24 08:03:27;;;;;;;;;26.33;22.00;;;;;19.10;64.79;102140.53;5079901;27;46276;-87
2021/08/24 08:05:53;;;;;;;;;26.00;25.00;;;;;19.16;64.46;102139.69;5079659;27;45312;-85
2021/08/24 08:08:18;;;;;;;;;27.00;23.00;;;;;19.18;64.28;102134.38;5080247;27;45435;-85
2021/08/24 08:10:43;;;;;;;;;26.67;25.00;;;;;19.15;64.09;102129.91;5080253;27;45371;-85
2021/08/24 08:13:09;;;;;;;;;26.33;23.67;;;;;19.21;64.56;102134.38;5079779;27;45380;-83
2021/08/24 08:15:34;;;;;;;;;23.00;20.67;;;;;19.27;64.42;102138.88;5079687;27;45502;-87
2021/08/24 08:18:05;;;;;;;;;22.67;21.67;;;;;19.27;63.85;102131.72;5079509;27;45417;-85
2021/08/24 08:20:31;;;;;;;;;18.67;18.67;;;;;19.36;63.83;102140.66;5078668;28;45403;-86
2021/08/24 08:22:58;;;;;;;;;22.33;19.33;;;;;19.40;63.99;102131.75;5079968;27;45484;-85
2021/08/24 08:25:24;;;;;;;;;22.33;18.00;;;;;19.45;63.46;102143.34;5079704;27;45408;-85
2021/08/24 08:27:49;;;;;;;;;17.00;16.33;;;;;19.49;64.05;102142.47;5079761;27;45403;-85
2021/08/24 08:30:15;;;;;;;;;22.67;19.33;;;;;19.53;63.33;102135.34;5081568;27;45417;-84
2021/08/24 08:32:43;;;;;;;;;22.67;22.00;;;;;19.58;63.24;102143.38;5080895;28;46420;-83
2021/08/24 08:35:10;;;;;;;;;19.33;17.67;;;;;19.64;62.69;102138.94;5079354;27;45252;-82
2021/08/24 08:37:36;;;;;;;;;18.00;18.00;;;;;19.70;62.97;102140.72;5078474;28;45333;-84
2021/08/24 08:40:07;;;;;;;;;14.67;14.00;;;;;19.76;63.13;102134.50;5079999;27;45351;-85
2021/08/24 08:42:50;;;;;;;;;16.33;16.00;;;;;19.82;62.90;102137.19;5079525;28;45719;-84
2021/08/24 08:45:25;;;;;;;;;18.33;16.67;;;;;19.87;62.12;102145.19;5079005;28;45386;-86
2021/08/24 08:48:06;;;;;;;;;18.00;15.67;;;;;19.92;62.26;102138.09;5079524;27;45223;-85
2021/08/24 08:50:51;;;;;;;;;16.00;14.33;;;;;19.99;61.37;102130.97;5079862;27;45864;-85
2021/08/24 08:53:40;;;;;;;;;15.00;14.00;;;;;20.12;61.87;102139.91;5079545;27;46257;-85
2021/08/24 08:56:32;;;;;;;;;15.00;12.33;;;;;20.35;61.82;102137.22;5080295;28;45306;-85
2021/08/24 08:59:10;;;;;;;;;17.33;14.00;;;;;20.64;61.24;102129.16;5079832;27;45247;-87
2021/08/24 09:02:09;;;;;;;;;14.00;13.33;;;;;21.04;60.72;102141.53;5079354;27;45257;-87
2021/08/24 09:04:41;;;;;;;;;13.67;12.00;;;;;21.41;60.75;102129.75;5078882;27;45507;-84
2021/08/24 09:07:17;;;;;;;;;11.00;11.00;;;;;21.78;59.43;102120.59;5078871;27;45388;-85
2021/08/24 09:09:43;;;;;;;;;13.33;12.00;;;;;22.12;59.10;102131.97;5078875;27;45394;-85
2021/08/24 09:12:10;;;;;;;;;13.67;12.00;;;;;22.43;58.16;102134.34;5079460;27;45330;-87
2021/08/24 09:14:42;;;;;;;;;14.00;12.00;;;;;22.77;57.78;102128.63;5079052;27;47387;-87
2021/08/24 09:17:16;;;;;;;;;12.33;11.67;;;;;23.12;56.50;102128.19;5078620;27;45329;-85
2021/08/24 09:19:55;;;;;;;;;13.67;11.00;;;;;23.43;55.91;102127.78;5078757;27;45484;-86
2021/08/24 09:22:20;;;;;;;;;10.33;8.67;;;;;23.77;54.61;102122.84;5112516;27;45473;-86
2021/08/24 09:24:47;;;;;;;;;11.67;9.67;;;;;24.08;54.79;102121.41;5078598;27;46927;-85
2021/08/24 09:27:57;;;;;;;;;12.00;10.00;;;;;24.47;53.59;102134.19;5078808;28;45379;-87
2021/08/24 09:30:23;;;;;;;;;8.67;8.00;;;;;24.76;53.81;102124.66;5056291;28;45375;-85
2021/08/24 09:32:49;;;;;;;;;11.33;9.67;;;;;24.97;52.08;102127.84;5056361;28;45237;-86
2021/08/24 09:35:24;;;;;;;;;9.67;8.33;;;;;25.25;50.96;102118.28;5038946;28;47128;-85
2021/08/24 09:37:50;;;;;;;;;7.00;7.00;;;;;25.53;50.80;102125.72;5055895;28;45342;-86
2021/08/24 09:40:37;;;;;;;;;8.00;8.00;;;;;25.78;49.96;102115.25;5056240;28;45402;-86
2021/08/24 09:43:36;;;;;;;;;7.67;7.67;;;;;26.13;49.20;102122.47;5057268;28;45446;-87
2021/08/24 09:46:23;;;;;;;;;7.00;7.00;;;;;26.45;49.26;102125.25;5050832;28;46200;-87
2021/08/24 09:49:01;;;;;;;;;9.00;7.00;;;;;26.76;48.24;102110.03;5056178;28;45400;-87
2021/08/24 09:51:32;;;;;;;;;7.00;7.00;;;;;27.04;48.11;102111.88;5055968;28;45472;-87
2021/08/24 09:54:00;;;;;;;;;8.00;7.00;;;;;27.27;46.67;102113.00;5056488;28;45387;-87
2021/08/24 09:56:31;;;;;;;;;6.67;6.67;;;;;27.51;45.57;102107.75;5056302;28;45482;-87
2021/08/24 09:58:57;;;;;;;;;8.00;7.67;;;;;27.70;46.31;102104.44;5055950;28;45219;-86
2021/08/24 10:01:23;;;;;;;;;7.00;6.00;;;;;27.93;45.02;102109.09;5056051;28;45470;-86
2021/08/24 10:04:06;;;;;;;;;6.33;6.33;;;;;28.16;45.21;102101.09;5064136;28;45213;-85
2021/08/24 10:06:34;;;;;;;;;9.00;6.00;;;;;28.24;43.89;102100.84;5078783;27;47113;-86
2021/08/24 10:09:29;;;;;;;;;6.00;5.00;;;;;28.31;43.43;102100.53;5079082;27;45204;-87
2021/08/24 10:12:18;;;;;;;;;8.00;7.00;;;;;28.49;43.10;102102.66;5081097;27;45266;-86
2021/08/24 10:14:43;;;;;;;;;6.00;6.00;;;;;28.61;43.70;102106.72;5084940;27;45359;-86
2021/08/24 10:17:34;;;;;;;;;5.00;5.00;;;;;28.53;42.08;102105.16;5083800;27;46306;-85
2021/08/24 10:20:02;;;;;;;;;8.00;5.67;;;;;28.42;43.14;102102.00;5068833;28;45237;-84
2021/08/24 10:22:37;;;;;;;;;8.33;6.00;;;;;28.19;42.58;102104.59;5077950;28;44896;-84
2021/08/24 10:25:09;;;;;;;;;5.33;5.33;;;;;27.89;42.38;102093.03;5059537;28;45490;-84
2021/08/24 10:28:07;;;;;;;;;6.33;5.33;;;;;27.58;41.95;102101.19;5056692;28;45540;-86
2021/08/24 10:30:39;;;;;;;;;7.00;7.00;;;;;27.36;42.01;102084.81;5001690;28;45473;-83
2021/08/24 10:33:04;;;;;;;;;7.67;7.67;;;;;27.14;42.47;102091.78;5015398;28;45245;-87
2021/08/24 10:35:38;;;;;;;;;8.00;5.00;;;;;26.93;41.97;102082.50;5019021;28;45306;-87
2021/08/24 10:38:03;;;;;;;;;7.00;7.00;;;;;26.86;42.74;102083.66;5017358;28;45299;-85
2021/08/24 10:40:42;;;;;;;;;4.00;4.00;;;;;27.12;42.18;102090.06;5008425;28;45403;-85
2021/08/24 10:43:10;;;;;;;;;5.00;4.33;;;;;27.47;41.50;102087.19;5015743;28;45680;-81
2021/08/24 10:45:46;;;;;;;;;7.00;6.00;;;;;27.47;41.08;102070.97;5022803;28;44940;-83
2021/08/24 10:48:20;;;;;;;;;4.00;4.00;;;;;27.67;40.93;102078.41;5023922;28;45344;-84
2021/08/24 10:50:51;;;;;;;;;8.00;5.33;;;;;27.49;40.71;102078.09;5021976;28;44860;-83
2021/08/24 10:54:15;;;;;;;;;5.33;5.33;;;;;27.32;39.73;102084.06;5022496;28;44776;-84
2021/08/24 10:57:01;;;;;;;;;3.67;3.67;;;;;27.35;40.90;102088.47;5016856;28;44980;-83
2021/08/24 10:59:36;;;;;;;;;5.33;5.33;;;;;27.34;40.41;102078.59;5042121;28;46485;-82
2021/08/24 11:02:41;;;;;;;;;8.00;6.00;;;;;27.29;40.56;102082.31;5040622;28;45381;-84
2021/08/24 11:05:06;;;;;;;;;5.00;5.00;;;;;27.36;40.05;102074.91;5042261;28;44813;-85
2021/08/24 11:07:58;;;;;;;;;6.00;4.33;;;;;27.33;39.81;102069.59;5052330;28;44905;-86
2021/08/24 11:10:38;;;;;;;;;6.00;5.00;;;;;27.22;39.44;102074.47;5077636;28;45190;-86
2021/08/24 11:13:34;;;;;;;;;6.67;6.33;;;;;27.17;40.50;102071.91;5061949;28;44725;-86
2021/08/24 11:16:10;;;;;;;;;4.67;4.00;;;;;27.21;39.72;102059.22;5019995;28;44798;-84
2021/08/24 11:19:03;;;;;;;;;4.00;4.00;;;;;27.46;39.63;102075.50;5020354;28;44660;-85
2021/08/24 11:21:48;;;;;;;;;6.00;6.00;;;;;27.74;39.51;102074.56;4960665;28;45782;-84
2021/08/24 11:24:25;;;;;;;;;4.00;4.00;;;;;28.01;38.69;102060.16;4956883;28;44766;-84
2021/08/24 11:27:10;;;;;;;;;6.00;6.00;;;;;28.36;39.38;102057.13;4954173;28;45362;-84
2021/08/24 11:29:44;;;;;;;;;3.00;3.00;;;;;28.66;39.03;102056.91;4981798;28;45529;-86